Terminal Aerodrome Forecast
Issued by NWS

Home | Current Version | Previous Version | Text Only | Print | Product List | Glossary On
Versions: 1 2 3 4 5 6 7 8 9 10 11 12 13
000
FTUS45 KRIW 222333
TAFRKS
TAF
KRKS 222333Z 2300/2324 36006KT P6SM VCSH SCT020 OVC035
     FM230100 02007KT 4SM -SN OVC020
     FM230300 05013KT 2SM -SN OVC012
     FM230900 05020G32KT 1/2SM SN BLSN VV005=

USA.gov is the U.S. government's official web portal to all federal, state and local government web resources and services.